Time;durP1;ratioP1;P1;durP2;ratioP2;P2;SDS_P1;SDS_P2;PMS_P1;PMS_P2;Temp;Humidity;BMP_temperature;BMP_pressure;BME280_temperature;BME280_humidity;BME280_pressure;Samples;Min_cycle;Max_cycle;Signal;HPM_P1;HPM_P2
2022/12/07 00:00:14;;;;;;;15.87;14.37;;;;;;;21.46;38.14;95011.91;6277592;27;103934;-66
2022/12/07 00:03:17;;;;;;;15.40;14.00;;;;;;;21.46;38.30;95011.91;6288026;27;106189;-65
2022/12/07 00:06:21;;;;;;;14.77;13.37;;;;;;;21.47;38.01;95013.50;6286613;27;105849;-67
2022/12/07 00:09:26;;;;;;;15.60;14.20;;;;;;;21.46;37.75;95017.25;6288071;27;104023;-66
2022/12/07 00:12:29;;;;;;;15.03;13.67;;;;;;;21.41;38.12;95005.94;6277092;27;103117;-67
2022/12/07 00:15:32;;;;;;;14.53;13.23;;;;;;;21.46;37.49;95011.13;6287837;27;103294;-67
2022/12/07 00:18:35;;;;;;;14.27;12.97;;;;;;;21.45;37.56;95007.69;6287395;27;103035;-67
2022/12/07 00:21:38;;;;;;;13.73;12.43;;;;;;;21.45;37.74;95010.34;6282303;27;103206;-67
2022/12/07 00:24:43;;;;;;;15.20;13.80;;;;;;;21.45;37.82;95010.34;6281202;27;103143;-67
2022/12/07 00:27:46;;;;;;;14.70;13.40;;;;;;;21.45;37.73;94999.69;6287495;27;103428;-67
2022/12/07 00:30:49;;;;;;;15.27;13.77;;;;;;;21.44;37.57;95000.00;6287233;27;103129;-67
2022/12/07 00:33:52;;;;;;;13.93;12.73;;;;;;;21.45;37.43;94997.03;6277137;27;102968;-67
2022/12/07 00:36:55;;;;;;;15.10;13.70;;;;;;;21.44;37.69;94997.34;6287907;27;104155;-66
2022/12/07 00:39:59;;;;;;;15.50;14.10;;;;;;;21.44;37.60;95003.44;6287404;27;102881;-67
2022/12/07 00:43:03;;;;;;;14.33;13.13;;;;;;;21.44;37.25;95006.13;6287793;27;103213;-67
2022/12/07 00:46:06;;;;;;;15.87;14.37;;;;;;;21.45;37.68;95013.00;6277273;27;102788;-67
2022/12/07 00:49:10;;;;;;;14.70;13.40;;;;;;;21.45;37.69;95005.03;6287320;27;102954;-67
2022/12/07 00:52:13;;;;;;;15.43;13.93;;;;;;;21.43;37.35;94993.91;6287331;27;104377;-67
2022/12/07 00:55:17;;;;;;;14.27;13.07;;;;;;;21.43;37.34;94982.47;6286599;27;103229;-67
2022/12/07 00:58:20;;;;;;;16.70;15.17;;;;;;;21.44;37.72;94990.16;6276224;27;102926;-67
2022/12/07 01:01:24;;;;;;;14.20;13.00;;;;;;;21.44;37.27;94992.81;6286911;27;103185;-67
2022/12/07 01:04:27;;;;;;;16.13;14.63;;;;;;;21.43;37.41;94991.22;6286939;27;103512;-67
2022/12/07 01:07:30;;;;;;;15.53;14.00;;;;;;;21.42;37.49;94994.97;6281737;27;103098;-67
2022/12/07 01:10:35;;;;;;;15.10;13.63;;;;;;;21.44;37.75;94986.69;6264363;27;105497;-67
2022/12/07 01:13:38;;;;;;;15.27;13.97;;;;;;;21.41;37.45;94993.41;6287364;27;102890;-67
2022/12/07 01:16:41;;;;;;;14.57;13.17;;;;;;;21.44;37.17;94986.69;6286343;27;102987;-66
2022/12/07 01:19:44;;;;;;;16.17;14.57;;;;;;;21.44;37.59;94981.38;6276967;27;102949;-66
2022/12/07 01:22:47;;;;;;;14.63;13.23;;;;;;;21.42;37.50;94984.34;6286052;27;103313;-66
2022/12/07 01:25:56;;;;;;;14.77;13.33;;;;;;;21.42;37.60;94981.69;6286375;27;103223;-67
2022/12/07 01:29:00;;;;;;;14.27;13.00;;;;;;;21.41;37.72;94980.09;6287093;27;104026;-66
2022/12/07 01:32:03;;;;;;;13.30;12.10;;;;;;;21.43;37.41;94979.78;6276032;27;103107;-66
2022/12/07 01:35:07;;;;;;;14.60;13.27;;;;;;;21.43;37.60;94980.59;6286804;27;103126;-66
2022/12/07 01:38:10;;;;;;;14.07;12.83;;;;;;;21.42;37.31;94978.22;6286396;27;103127;-67
2022/12/07 01:41:15;;;;;;;16.10;13.63;;;;;;;21.42;37.37;94981.69;6286551;27;103524;-67
2022/12/07 01:44:21;;;;;;;14.47;13.17;;;;;;;21.41;37.15;94969.47;6276302;27;105772;-67
2022/12/07 01:47:25;;;;;;;14.70;13.27;;;;;;;21.41;37.68;94974.00;6286136;27;103016;-66
2022/12/07 01:50:31;;;;;;;14.63;13.33;;;;;;;21.42;37.27;94971.03;6282624;27;103186;-66
2022/12/07 01:53:37;;;;;;;13.67;12.47;;;;;;;21.41;37.43;94974.00;6278288;27;103204;-67
2022/12/07 01:56:47;;;;;;;14.30;13.10;;;;;;;21.42;37.62;94968.38;6279971;27;103049;-67
2022/12/07 01:59:53;;;;;;;14.13;12.83;;;;;;;21.42;37.23;94963.03;6286163;27;104138;-66
2022/12/07 02:03:01;;;;;;;14.30;13.10;;;;;;;21.41;36.93;94961.47;6285521;27;103132;-66
2022/12/07 02:06:05;;;;;;;15.90;14.40;;;;;;;21.39;37.06;94958.31;6276192;27;102992;-67
2022/12/07 02:09:08;;;;;;;14.90;13.50;;;;;;;21.39;37.28;94957.53;6285268;27;103025;-67
2022/12/07 02:12:13;;;;;;;14.33;13.03;;;;;;;21.41;37.43;94950.81;6285496;27;103256;-66
2022/12/07 02:15:16;;;;;;;13.87;12.67;;;;;;;21.42;37.52;94946.28;6285729;27;102969;-67
2022/12/07 02:18:26;;;;;;;14.07;12.77;;;;;;;21.43;36.83;94948.63;6274895;27;103206;-67
2022/12/07 02:21:39;;;;;;;14.30;13.00;;;;;;;21.41;37.02;94952.69;6289413;27;103022;-67
2022/12/07 02:24:53;;;;;;;14.40;13.10;;;;;;;21.41;37.43;94955.38;6264665;27;103126;-68
2022/12/07 02:28:05;;;;;;;14.63;13.33;;;;;;;21.41;37.17;94950.81;6286703;27;103427;-67
2022/12/07 02:31:16;;;;;;;14.03;12.73;;;;;;;21.34;37.38;94936.34;6283944;27;104754;-68
2022/12/07 02:34:28;;;;;;;14.13;12.70;;;;;;;21.39;36.96;94939.69;6289759;27;103304;-68
2022/12/07 02:37:38;;;;;;;12.60;11.50;;;;;;;21.41;37.17;94940.19;6290066;27;105883;-68
2022/12/07 02:40:49;;;;;;;14.10;12.80;;;;;;;21.40;37.11;94930.63;6279150;27;102915;-68
2022/12/07 02:43:55;;;;;;;14.03;12.83;;;;;;;21.41;36.90;94937.50;6289789;27;103291;-67
2022/12/07 02:47:04;;;;;;;13.70;12.50;;;;;;;21.41;37.35;94934.06;6288977;27;103347;-66
2022/12/07 02:50:09;;;;;;;12.63;11.50;;;;;;;21.41;37.32;94936.72;6288451;27;102987;-67
2022/12/07 02:53:30;;;;;;;13.97;12.77;;;;;;;21.42;37.43;94946.28;6278343;27;103715;-67
2022/12/07 02:56:44;;;;;;;13.30;12.10;;;;;;;21.40;37.26;94949.25;6288942;27;103087;-67
2022/12/07 03:00:00;;;;;;;13.20;12.00;;;;;;;21.41;36.92;94939.38;6289410;27;105422;-67
2022/12/07 03:03:11;;;;;;;12.57;11.37;;;;;;;21.40;36.87;94935.94;6283671;27;103281;-66
2022/12/07 03:06:21;;;;;;;12.20;11.20;;;;;;;21.40;37.10;94927.97;6287114;27;103684;-66
2022/12/07 03:09:31;;;;;;;12.97;11.77;;;;;;;21.40;37.08;94921.84;6288152;27;103074;-66
2022/12/07 03:12:43;;;;;;;12.80;11.70;;;;;;;21.41;37.16;94915.44;6287716;27;103122;-66
2022/12/07 03:15:56;;;;;;;13.40;12.20;;;;;;;21.34;37.16;94902.56;6273800;27;103190;-65
2022/12/07 03:19:05;;;;;;;13.50;12.20;;;;;;;21.39;36.74;94920.28;6289348;27;103276;-66
2022/12/07 03:22:11;;;;;;;12.17;11.07;;;;;;;21.41;36.92;94913.56;6288842;27;102902;-66
2022/12/07 03:25:17;;;;;;;12.00;10.90;;;;;;;21.39;37.10;94914.94;6288995;27;103330;-65
2022/12/07 03:28:24;;;;;;;12.37;11.37;;;;;;;21.31;36.97;94903.16;6280327;27;104107;-66
2022/12/07 03:31:32;;;;;;;12.93;11.63;;;;;;;21.39;36.69;94913.06;6287122;27;103095;-66
2022/12/07 03:34:43;;;;;;;12.97;11.87;;;;;;;21.40;37.13;94913.84;6288815;27;102993;-66
2022/12/07 03:37:52;;;;;;;12.90;11.80;;;;;;;21.40;36.86;94911.19;6280112;27;103323;-66
2022/12/07 03:41:01;;;;;;;13.30;11.93;;;;;;;21.35;37.00;94909.47;6287577;27;103192;-66
2022/12/07 03:44:05;;;;;;;12.20;11.10;;;;;;;21.36;36.92;94919.00;6288174;27;103156;-66
2022/12/07 03:47:17;;;;;;;12.20;11.10;;;;;;;21.39;36.82;94921.06;6288518;27;103181;-66
2022/12/07 03:50:29;;;;;;;12.77;11.70;;;;;;;21.38;36.76;94916.84;6277644;27;103949;-65
2022/12/07 03:53:37;;;;;;;13.43;12.10;;;;;;;21.39;36.60;94915.75;6287327;27;103329;-66
2022/12/07 03:56:43;;;;;;;13.87;12.57;;;;;;;21.39;36.93;94918.41;6288119;27;103222;-66
2022/12/07 03:59:47;;;;;;;12.70;11.60;;;;;;;21.41;36.93;94915.44;6280326;27;103372;-65
2022/12/07 04:02:53;;;;;;;12.07;10.97;;;;;;;21.40;37.00;94909.31;6277128;27;103179;-66
2022/12/07 04:05:58;;;;;;;12.87;11.80;;;;;;;21.39;36.99;94915.75;6288252;27;106469;-66
2022/12/07 04:09:01;;;;;;;12.93;11.63;;;;;;;21.40;36.72;94908.53;6287534;27;103308;-66
2022/12/07 04:12:05;;;;;;;13.77;11.90;;;;;;;21.40;36.83;94908.53;6279725;27;103234;-67
2022/12/07 04:15:09;;;;;;;12.90;11.80;;;;;;;21.40;36.87;94911.97;6281465;27;103540;-67
2022/12/07 04:18:12;;;;;;;12.60;11.50;;;;;;;21.38;37.26;94908.84;6286106;27;103303;-66
2022/12/07 04:21:17;;;;;;;13.47;12.13;;;;;;;21.36;37.09;94907.59;6286532;27;103199;-65
2022/12/07 04:24:20;;;;;;;12.77;11.67;;;;;;;21.39;36.89;94912.28;6264395;27;104118;-65
2022/12/07 04:27:23;;;;;;;13.00;11.73;;;;;;;21.37;37.25;94907.28;6287452;27;103019;-65
2022/12/07 04:30:26;;;;;;;12.43;11.40;;;;;;;21.38;37.26;94902.72;6286626;27;103774;-66
2022/12/07 04:33:29;;;;;;;13.90;12.50;;;;;;;21.28;36.84;94901.09;6286891;27;103223;-64
2022/12/07 04:36:35;;;;;;;15.40;13.90;;;;;;;21.31;37.08;94905.03;6274695;27;103912;-64
2022/12/07 04:39:38;;;;;;;14.33;12.90;;;;;;;21.34;37.12;94910.56;6288590;27;104163;-65
2022/12/07 04:42:41;;;;;;;13.47;12.37;;;;;;;21.37;37.22;94919.78;6287148;27;102925;-64
2022/12/07 04:45:47;;;;;;;15.53;14.10;;;;;;;21.35;37.46;94919.31;6284900;27;103358;-64
2022/12/07 04:48:51;;;;;;;14.80;13.40;;;;;;;21.29;37.63;94918.63;6275036;27;103152;-64
2022/12/07 04:51:55;;;;;;;16.37;14.60;;;;;;;21.34;38.09;94918.53;6285970;27;103157;-65
2022/12/07 04:54:58;;;;;;;16.60;14.60;;;;;;;21.22;38.15;94910.31;6287196;27;103151;-64
2022/12/07 04:58:01;;;;;;;17.33;15.63;;;;;;;21.32;37.68;94914.56;6266412;27;103409;-65
2022/12/07 05:01:04;;;;;;;18.60;16.60;;;;;;;21.26;38.07;94913.13;6270352;27;104140;-65
2022/12/07 05:04:08;;;;;;;17.57;15.60;;;;;;;21.28;38.22;94914.41;6286740;27;103142;-64
2022/12/07 05:07:12;;;;;;;17.47;15.87;;;;;;;21.36;37.80;94926.22;6286974;27;103174;-64
2022/12/07 05:10:15;;;;;;;19.70;17.80;;;;;;;21.36;37.92;94921.66;6276275;27;103070;-65
2022/12/07 05:13:18;;;;;;;21.10;19.20;;;;;;;21.45;38.13;94927.81;6286152;27;104029;-66
2022/12/07 05:16:22;;;;;;;20.63;18.60;;;;;;;21.57;38.86;94924.63;6285082;27;103797;-68
2022/12/07 05:19:25;;;;;;;20.30;18.20;;;;;;;21.59;38.67;94924.31;6284715;27;103137;-67
2022/12/07 05:22:30;;;;;;;24.00;21.53;;;;;;;21.37;38.04;94917.13;6272126;27;103882;-67
2022/12/07 05:25:33;;;;;;;25.90;23.20;;;;;;;21.37;36.94;94917.91;6287326;27;103204;-67
2022/12/07 05:28:37;;;;;;;25.20;22.30;;;;;;;21.32;36.82;94915.38;6287240;27;103127;-67
2022/12/07 05:31:40;;;;;;;23.83;21.40;;;;;;;21.37;36.63;94920.59;6287853;27;103299;-67
2022/12/07 05:34:43;;;;;;;23.33;20.97;;;;;;;21.39;36.65;94917.63;6277649;27;103174;-67
2022/12/07 05:37:48;;;;;;;23.30;20.50;;;;;;;21.39;36.82;94921.06;6287592;27;106265;-67
2022/12/07 05:40:51;;;;;;;24.17;21.63;;;;;;;21.34;36.93;94923.03;6287631;27;103169;-67
2022/12/07 05:43:54;;;;;;;22.70;20.50;;;;;;;21.38;36.67;94922.16;6282506;27;103168;-67
2022/12/07 05:46:57;;;;;;;23.77;21.47;;;;;;;21.31;36.51;94903.16;6281688;27;103083;-67
2022/12/07 05:50:00;;;;;;;22.10;20.03;;;;;;;21.40;36.45;94916.53;6287165;27;103166;-67
2022/12/07 05:53:05;;;;;;;22.13;19.70;;;;;;;21.41;36.53;94920.75;6286726;27;103019;-67
2022/12/07 05:56:08;;;;;;;21.80;19.60;;;;;;;21.43;36.25;94922.03;6276360;27;103124;-67
2022/12/07 05:59:23;;;;;;;22.40;20.10;;;;;;;21.42;36.56;94923.13;6286642;27;103424;-66
2022/12/07 06:02:26;;;;;;;21.63;19.43;;;;;;;21.43;36.90;94906.03;6287387;27;104199;-67
2022/12/07 06:05:29;;;;;;;21.63;19.60;;;;;;;21.42;36.66;94920.44;6286624;27;102913;-67
2022/12/07 06:08:34;;;;;;;22.37;20.17;;;;;;;21.43;36.70;94911.38;6276255;27;103803;-67
2022/12/07 06:14:57;;;;;;;23.47;21.10;;;;;;;21.43;36.41;94911.38;6286089;27;103305;-67
2022/12/07 06:18:00;;;;;;;20.57;18.63;;;;;;;21.42;36.63;94907.13;6281810;27;106133;-67
2022/12/07 06:21:04;;;;;;;20.53;18.50;;;;;;;21.43;36.19;94905.25;6280681;27;103239;-66
2022/12/07 06:24:11;;;;;;;22.63;20.53;;;;;;;21.43;36.44;94911.38;6286572;27;103818;-66
2022/12/07 06:27:14;;;;;;;21.73;19.83;;;;;;;21.45;36.64;94924.38;6285999;27;103091;-66
2022/12/07 06:30:17;;;;;;;20.83;18.93;;;;;;;21.43;36.18;94914.03;6274863;27;103220;-67
2022/12/07 06:33:20;;;;;;;22.23;20.27;;;;;;;21.43;36.47;94924.69;6285853;27;103192;-65
2022/12/07 06:36:23;;;;;;;21.87;19.67;;;;;;;21.42;36.45;94920.44;6285515;27;103477;-66
2022/12/07 06:39:31;;;;;;;21.40;19.20;;;;;;;21.39;36.09;94914.94;6286205;27;103990;-66
2022/12/07 06:42:34;;;;;;;21.37;19.37;;;;;;;21.43;36.42;94923.91;6275003;27;103015;-67
2022/12/07 06:45:37;;;;;;;22.43;20.43;;;;;;;21.41;36.29;94924.19;6285853;27;103715;-66
2022/12/07 06:48:41;;;;;;;22.07;19.97;;;;;;;21.16;36.59;94892.88;6285507;27;103231;-67
2022/12/07 06:51:44;;;;;;;21.63;19.63;;;;;;;21.41;36.23;94926.06;6281862;27;103010;-68
2022/12/07 06:54:49;;;;;;;20.97;18.97;;;;;;;21.42;36.34;94925.78;6279747;27;102999;-66
2022/12/07 06:57:52;;;;;;;20.60;18.70;;;;;;;21.42;36.47;94928.44;6284982;27;104052;-67
2022/12/07 07:00:55;;;;;;;21.33;19.37;;;;;;;21.37;36.49;94912.59;6285574;27;103192;-67
2022/12/07 07:03:58;;;;;;;19.83;18.13;;;;;;;21.44;36.06;94922.81;6274792;27;104109;-67
2022/12/07 07:07:01;;;;;;;19.53;17.73;;;;;;;21.43;36.34;94932.66;6289145;27;103148;-67
2022/12/07 07:10:07;;;;;;;20.73;18.73;;;;;;;21.42;36.37;94933.75;6289473;27;103921;-67
2022/12/07 07:13:10;;;;;;;20.33;18.50;;;;;;;21.42;36.52;94935.63;6289352;27;103262;-69
2022/12/07 07:16:14;;;;;;;20.50;18.50;;;;;;;21.45;36.54;94932.34;6278912;27;103975;-67
2022/12/07 07:19:17;;;;;;;19.87;17.87;;;;;;;21.47;36.57;94932.84;6288890;27;103335;-67
2022/12/07 07:22:20;;;;;;;21.50;19.40;;;;;;;21.46;36.28;94931.28;6289517;27;104244;-67
2022/12/07 07:25:24;;;;;;;20.90;18.80;;;;;;;21.46;36.34;94936.59;6289254;27;102918;-67
2022/12/07 07:28:27;;;;;;;20.13;17.97;;;;;;;21.44;36.71;94934.25;6278176;27;103170;-66
2022/12/07 07:31:30;;;;;;;19.97;17.93;;;;;;;21.45;36.54;94930.47;6289487;27;103076;-67
2022/12/07 07:34:34;;;;;;;19.50;17.60;;;;;;;21.45;36.75;94940.34;6288416;27;102783;-65
2022/12/07 07:37:37;;;;;;;19.43;17.50;;;;;;;21.48;36.43;94934.41;6283859;27;104139;-66
2022/12/07 07:40:42;;;;;;;19.37;17.57;;;;;;;21.47;36.55;94954.13;6284234;27;103143;-68
2022/12/07 07:43:45;;;;;;;19.60;17.80;;;;;;;21.47;36.31;94952.25;6288634;27;103270;-67
2022/12/07 07:46:48;;;;;;;18.80;17.20;;;;;;;21.44;36.32;94942.22;6289066;27;103198;-67
2022/12/07 07:49:51;;;;;;;18.83;17.03;;;;;;;21.46;36.35;94945.38;6278288;27;103519;-67
2022/12/07 07:52:54;;;;;;;18.40;16.80;;;;;;;21.48;36.17;94937.06;6288938;27;103206;-67
2022/12/07 07:55:58;;;;;;;18.73;17.00;;;;;;;21.41;36.27;94932.19;6289058;27;104034;-67
2022/12/07 07:59:01;;;;;;;20.10;18.30;;;;;;;21.47;36.52;94938.94;6288279;27;103219;-66
2022/12/07 08:02:05;;;;;;;19.13;17.47;;;;;;;21.47;36.27;94932.84;6278805;27;105423;-67
2022/12/07 08:05:08;;;;;;;19.10;17.40;;;;;;;21.49;36.41;94944.75;6288568;27;102974;-66
2022/12/07 08:08:11;;;;;;;19.27;17.57;;;;;;;21.51;36.14;94950.59;6288658;27;102790;-67
2022/12/07 08:11:16;;;;;;;18.57;16.70;;;;;;;21.52;36.63;94940.72;6284821;27;103079;-67
2022/12/07 08:14:19;;;;;;;18.13;16.47;;;;;;;21.51;36.55;94950.59;6283101;27;103145;-67
2022/12/07 08:17:22;;;;;;;19.80;17.90;;;;;;;21.52;36.65;94940.72;6288605;27;102997;-67
2022/12/07 08:20:25;;;;;;;19.47;17.70;;;;;;;21.53;36.48;94942.28;6287769;27;104107;-68
2022/12/07 08:23:28;;;;;;;18.33;16.77;;;;;;;21.49;36.29;94939.44;6278260;27;104143;-66
2022/12/07 08:26:43;;;;;;;17.40;15.90;;;;;;;21.54;36.74;94940.41;6287684;27;103179;-67
2022/12/07 08:29:46;;;;;;;17.50;15.90;;;;;;;21.54;36.59;94943.06;6287943;27;103349;-67
2022/12/07 08:32:50;;;;;;;17.93;16.33;;;;;;;21.52;36.14;94935.41;6288380;27;103069;-67
2022/12/07 08:35:53;;;;;;;17.43;15.73;;;;;;;21.53;36.45;94934.31;6277926;27;103436;-67
2022/12/07 08:38:56;;;;;;;16.93;15.50;;;;;;;21.52;36.41;94938.84;6288293;27;105924;-66
2022/12/07 08:42:22;;;;;;;16.70;15.30;;;;;;;21.59;36.15;94929.63;6287875;27;102750;-67
2022/12/07 08:45:26;;;;;;;18.00;16.30;;;;;;;21.64;36.42;94932.16;6283494;27;103763;-67
2022/12/07 08:48:30;;;;;;;17.37;15.77;;;;;;;21.69;36.16;94929.38;6281594;27;103321;-66
2022/12/07 08:51:33;;;;;;;17.20;15.70;;;;;;;21.72;36.59;94921.56;6288072;27;104028;-67
2022/12/07 08:54:39;;;;;;;15.90;14.57;;;;;;;21.72;36.13;94926.09;6287477;27;103154;-67
2022/12/07 08:57:44;;;;;;;15.77;14.33;;;;;;;21.69;36.17;94924.84;6276299;27;102974;-66
2022/12/07 09:00:47;;;;;;;15.43;13.93;;;;;;;21.68;36.46;94919.81;6287597;27;103648;-67
2022/12/07 09:03:50;;;;;;;16.30;14.80;;;;;;;21.68;36.31;94917.16;6287198;27;107291;-67
2022/12/07 09:06:54;;;;;;;15.47;14.07;;;;;;;21.64;36.44;94910.84;6287472;27;103256;-66
2022/12/07 09:09:57;;;;;;;16.67;15.27;;;;;;;21.63;36.22;94903.97;6276281;27;104463;-66
2022/12/07 09:13:02;;;;;;;16.70;15.20;;;;;;;21.63;36.67;94914.59;6286898;27;102797;-66
2022/12/07 09:16:06;;;;;;;15.63;14.33;;;;;;;21.62;36.63;94913.03;6288128;27;103145;-66
2022/12/07 09:19:09;;;;;;;16.57;15.00;;;;;;;21.58;36.42;94907.53;6287076;27;103381;-67
2022/12/07 09:22:12;;;;;;;16.77;15.30;;;;;;;21.59;36.68;94900.34;6277025;27;103193;-67
2022/12/07 09:25:15;;;;;;;15.33;14.03;;;;;;;21.49;36.67;94883.53;6286978;27;103099;-67
2022/12/07 09:28:20;;;;;;;15.60;14.10;;;;;;;21.58;36.78;94883.56;6286124;27;103201;-66
2022/12/07 09:31:23;;;;;;;16.27;14.97;;;;;;;21.58;36.55;94886.25;6279692;27;103836;-67
2022/12/07 09:34:28;;;;;;;15.80;14.40;;;;;;;21.53;36.63;94886.38;6284589;27;104561;-66
2022/12/07 09:37:34;;;;;;;16.13;14.67;;;;;;;21.58;36.59;94890.78;6286861;27;102943;-67
2022/12/07 09:40:38;;;;;;;14.90;13.60;;;;;;;21.59;36.86;94879.03;6286229;27;103476;-66
2022/12/07 09:43:42;;;;;;;15.40;14.00;;;;;;;21.61;36.42;94879.50;6277168;27;103107;-67
2022/12/07 09:46:46;;;;;;;15.07;13.80;;;;;;;21.63;36.21;94864.00;6286754;27;102992;-66
2022/12/07 09:49:49;;;;;;;14.77;13.57;;;;;;;21.61;36.72;94855.53;6286257;27;102999;-67
2022/12/07 09:52:54;;;;;;;15.23;13.83;;;;;;;21.65;36.72;94862.59;6285723;27;103239;-66
2022/12/07 09:55:57;;;;;;;15.40;14.10;;;;;;;21.67;36.39;94857.75;6276659;27;106336;-67
2022/12/07 09:59:03;;;;;;;15.33;13.93;;;;;;;21.66;36.42;94852.75;6286094;27;103227;-66
2022/12/07 10:02:26;;;;;;;15.10;13.90;;;;;;;21.59;36.38;94844.41;6286219;27;102993;-66
2022/12/07 10:05:33;;;;;;;13.73;12.53;;;;;;;21.66;36.42;94852.75;6278512;27;103013;-67
2022/12/07 10:08:36;;;;;;;14.23;12.90;;;;;;;21.64;36.74;94855.72;6285051;27;103015;-66
2022/12/07 10:12:08;;;;;;;13.63;12.43;;;;;;;21.64;36.68;94842.41;6285610;27;102982;-67
2022/12/07 10:15:14;;;;;;;14.27;13.07;;;;;;;21.63;36.31;94837.38;6250789;27;102990;-66
2022/12/07 10:18:33;;;;;;;13.97;12.83;;;;;;;21.61;36.78;94834.25;6275289;27;104117;-66
2022/12/07 10:21:36;;;;;;;14.27;12.93;;;;;;;21.63;36.56;94837.38;6286579;27;103348;-66
2022/12/07 10:24:42;;;;;;;14.47;13.13;;;;;;;21.60;36.71;94825.47;6286563;27;104014;-67
2022/12/07 10:27:57;;;;;;;14.80;13.50;;;;;;;21.61;36.23;94823.59;6282019;27;102937;-66
2022/12/07 10:31:04;;;;;;;13.57;12.47;;;;;;;21.63;36.68;94829.41;6281754;27;103558;-67
2022/12/07 10:34:23;;;;;;;14.17;12.87;;;;;;;21.62;36.58;94806.53;6285458;27;103489;-66
2022/12/07 10:37:27;;;;;;;14.07;12.97;;;;;;;21.67;36.73;94809.03;6286125;27;106065;-66
2022/12/07 10:40:34;;;;;;;13.50;12.20;;;;;;;21.61;36.45;94804.97;6276800;27;103698;-67
2022/12/07 10:43:37;;;;;;;13.57;12.37;;;;;;;21.64;36.71;94804.34;6290424;27;103122;-66
2022/12/07 10:47:10;;;;;;;13.13;12.03;;;;;;;21.62;36.51;94804.66;6289839;27;104151;-67
2022/12/07 10:50:27;;;;;;;14.40;13.20;;;;;;;21.61;36.38;94795.09;6288608;27;103389;-67
2022/12/07 10:53:44;;;;;;;14.47;13.27;;;;;;;21.59;36.51;94791.94;6284021;27;104984;-66
2022/12/07 10:57:02;;;;;;;14.17;12.97;;;;;;;21.61;36.37;94799.63;6289851;27;103328;-68
2022/12/07 11:00:15;;;;;;;13.97;12.70;;;;;;;21.59;36.58;94780.53;6290367;27;103307;-67
2022/12/07 11:03:37;;;;;;;13.53;12.23;;;;;;;21.59;36.90;94783.19;6279105;27;104120;-67
2022/12/07 11:06:48;;;;;;;12.60;11.50;;;;;;;21.59;36.45;94775.19;6289947;27;104221;-67
2022/12/07 11:10:06;;;;;;;12.87;11.77;;;;;;;21.58;36.50;94765.63;6288865;27;103209;-67
2022/12/07 11:13:24;;;;;;;13.73;12.53;;;;;;;21.57;36.77;94774.72;6285015;27;103208;-66
2022/12/07 11:16:41;;;;;;;13.20;11.90;;;;;;;21.56;36.99;94765.94;6283985;27;103143;-67
2022/12/07 11:19:56;;;;;;;13.13;12.03;;;;;;;21.57;36.50;94767.50;6289937;27;103344;-67
2022/12/07 11:23:11;;;;;;;12.80;11.67;;;;;;;21.57;36.77;94772.06;6289579;27;103282;-67
2022/12/07 11:26:21;;;;;;;12.80;11.70;;;;;;;21.56;36.84;94760.63;6277727;27;104110;-67
2022/12/07 11:29:42;;;;;;;13.13;11.97;;;;;;;21.57;36.95;94748.88;6289501;27;103497;-67
2022/12/07 11:33:16;;;;;;;11.83;10.83;;;;;;;21.56;36.62;94754.50;6289077;27;103158;-66
2022/12/07 11:36:34;;;;;;;12.53;11.43;;;;;;;21.59;36.63;94732.59;6282173;27;103077;-67
2022/12/07 11:39:44;;;;;;;12.70;11.53;;;;;;;21.45;36.73;94711.41;6289002;27;103193;-67
2022/12/07 11:42:52;;;;;;;11.73;10.73;;;;;;;21.61;36.70;94733.84;6289065;27;103260;-68
2022/12/07 11:46:01;;;;;;;12.37;11.37;;;;;;;21.59;36.32;94729.94;6288251;27;103349;-66
2022/12/07 11:49:11;;;;;;;12.30;11.30;;;;;;;21.59;36.46;94725.38;6278517;27;103253;-67
2022/12/07 11:52:23;;;;;;;12.27;11.27;;;;;;;21.59;36.87;94717.41;6288727;27;103217;-67
2022/12/07 11:55:39;;;;;;;12.57;11.47;;;;;;;21.58;36.72;94715.84;6288579;27;103073;-66
2022/12/07 11:58:52;;;;;;;12.97;11.87;;;;;;;21.58;36.78;94709.72;6283630;27;104410;-66
2022/12/07 12:02:03;;;;;;;12.03;10.93;;;;;;;21.58;37.03;94720.38;6284091;27;104014;-66
2022/12/07 12:05:16;;;;;;;12.80;11.60;;;;;;;21.56;36.66;94712.69;6289168;27;102920;-66
2022/12/07 12:08:28;;;;;;;12.23;11.23;;;;;;;21.57;36.89;94708.94;6288002;27;103551;-66
2022/12/07 12:12:19;;;;;;;11.63;10.70;;;;;;;21.60;36.40;94708.31;6278258;27;102783;-66
2022/12/07 12:15:54;;;;;;;11.60;10.50;;;;;;;21.57;36.82;94702.84;6287778;27;102706;-68
2022/12/07 12:19:20;;;;;;;11.97;10.97;;;;;;;21.56;36.56;94698.59;6288235;27;102792;-67
2022/12/07 12:22:33;;;;;;;10.80;9.80;;;;;;;21.57;36.44;94690.31;6278560;27;103913;-67
2022/12/07 12:25:42;;;;;;;11.97;10.97;;;;;;;21.57;36.64;94686.84;6289061;27;103696;-66
2022/12/07 12:28:53;;;;;;;11.07;10.17;;;;;;;21.57;36.83;94681.53;6288554;27;102995;-67
2022/12/07 12:32:12;;;;;;;12.23;10.93;;;;;;;21.56;36.98;94678.09;6287952;27;103195;-66
2022/12/07 12:35:33;;;;;;;11.07;10.17;;;;;;;21.56;37.05;94679.97;6279361;27;105891;-65
2022/12/07 12:38:50;;;;;;;11.67;10.60;;;;;;;21.57;36.47;94682.31;6288106;27;103215;-67
2022/12/07 12:42:08;;;;;;;11.00;10.10;;;;;;;21.55;37.08;94673.84;6288674;27;103338;-66
2022/12/07 12:45:24;;;;;;;11.73;10.73;;;;;;;21.55;36.92;94671.19;6277385;27;103073;-66
2022/12/07 12:48:37;;;;;;;11.17;10.20;;;;;;;21.57;36.92;94665.56;6287750;27;103068;-66
2022/12/07 12:51:42;;;;;;;10.90;10.00;;;;;;;21.56;36.53;94664.00;6288936;27;103395;-67
2022/12/07 12:55:01;;;;;;;11.17;10.17;;;;;;;21.56;36.58;94666.66;6287834;27;103750;-67
2022/12/07 12:58:37;;;;;;;10.30;9.50;;;;;;;21.52;36.57;94669.16;6276964;27;103182;-67
2022/12/07 13:01:43;;;;;;;10.73;9.73;;;;;;;21.55;36.73;94662.44;6287224;27;103203;-67
2022/12/07 13:04:53;;;;;;;10.40;9.40;;;;;;;21.57;36.71;94663.69;6287353;27;104402;-67
2022/12/07 13:08:06;;;;;;;11.13;10.23;;;;;;;21.58;37.07;94661.81;6276189;27;105081;-66
2022/12/07 13:11:21;;;;;;;12.17;10.73;;;;;;;21.57;36.84;94660.22;6288044;27;102716;-65
2022/12/07 13:14:57;;;;;;;10.87;9.93;;;;;;;21.30;36.68;94619.47;6287529;27;103347;-67
2022/12/07 13:18:23;;;;;;;11.17;10.27;;;;;;;21.48;37.06;94649.56;6283906;27;105169;-66
2022/12/07 13:21:43;;;;;;;10.83;9.83;;;;;;;21.59;37.04;94674.00;6282500;27;103645;-66
2022/12/07 13:24:47;;;;;;;11.17;10.13;;;;;;;21.56;36.64;94674.63;6287485;27;103532;-66
2022/12/07 13:27:57;;;;;;;10.87;9.90;;;;;;;21.55;36.40;94668.53;6287399;27;103276;-65
2022/12/07 13:31:24;;;;;;;10.33;9.43;;;;;;;21.58;37.12;94667.13;6276307;27;102904;-67
2022/12/07 13:34:32;;;;;;;11.17;10.17;;;;;;;21.58;36.73;94667.13;6287097;27;102974;-67
2022/12/07 13:37:36;;;;;;;10.70;9.63;;;;;;;21.56;37.06;94664.78;6286489;27;102772;-66
2022/12/07 13:40:40;;;;;;;9.70;8.83;;;;;;;21.57;37.00;94657.56;6284140;27;102741;-67
2022/12/07 13:43:50;;;;;;;10.63;9.63;;;;;;;21.55;36.85;94657.88;6281548;27;103822;-67
2022/12/07 13:47:05;;;;;;;10.50;9.60;;;;;;;21.56;36.72;94659.44;6286970;27;104762;-66
2022/12/07 13:50:24;;;;;;;10.07;9.17;;;;;;;21.57;37.07;94660.22;6287161;27;103024;-66
2022/12/07 13:53:30;;;;;;;9.73;8.93;;;;;;;21.56;36.95;94656.00;6276495;27;103013;-66
2022/12/07 13:56:35;;;;;;;9.47;8.67;;;;;;;21.55;36.83;94651.78;6286265;27;103205;-66
2022/12/07 13:59:39;;;;;;;9.73;8.83;;;;;;;21.54;36.93;94645.66;6286542;27;102986;-66
2022/12/07 14:02:56;;;;;;;9.47;8.70;;;;;;;21.51;37.10;94635.66;6286766;27;103274;-66
2022/12/07 14:06:18;;;;;;;10.70;9.33;;;;;;;21.54;36.80;94643.00;6277370;27;104227;-66
2022/12/07 14:09:24;;;;;;;10.20;9.30;;;;;;;21.55;37.38;94644.56;6286576;27;105332;-67
2022/12/07 14:12:29;;;;;;;9.80;9.00;;;;;;;21.52;37.01;94642.53;6286903;27;102939;-67
2022/12/07 14:15:34;;;;;;;10.00;9.10;;;;;;;21.54;36.96;94658.19;6279128;27;103658;-67